createdAt,value
2018-01-28T00:01:20.812Z,51.03
2018-01-28T00:03:49.272Z,45.07
2018-01-28T00:06:17.552Z,44.80
2018-01-28T00:08:46.419Z,41.57
2018-01-28T00:11:15.485Z,51.53
2018-01-28T00:13:43.859Z,46.93
2018-01-28T00:16:12.141Z,52.00
2018-01-28T00:18:40.437Z,37.50
2018-01-28T00:21:09.460Z,40.97
2018-01-28T00:23:37.808Z,44.87
2018-01-28T00:26:06.885Z,38.37
2018-01-28T00:28:35.272Z,41.93
2018-01-28T00:31:03.539Z,41.17
2018-01-28T00:33:31.795Z,38.63
2018-01-28T00:36:00.055Z,41.73
2018-01-28T00:38:29.312Z,42.43
2018-01-28T00:41:00.729Z,38.97
2018-01-28T00:43:29.842Z,40.00
2018-01-28T00:45:58.973Z,39.37
2018-01-28T00:48:27.303Z,37.77
2018-01-28T00:50:56.368Z,39.43
2018-01-28T00:53:25.442Z,35.77
2018-01-28T00:55:53.999Z,39.17
2018-01-28T00:58:23.088Z,38.27
2018-01-28T01:00:51.341Z,40.07
2018-01-28T01:03:20.385Z,38.90
2018-01-28T01:05:48.664Z,44.17
2018-01-28T01:08:16.900Z,43.47
2018-01-28T01:10:46.390Z,41.90
2018-01-28T01:13:18.861Z,46.03
2018-01-28T01:15:47.149Z,47.87
2018-01-28T01:18:15.505Z,43.57
2018-01-28T01:20:43.887Z,42.87
2018-01-28T01:23:12.233Z,42.77
2018-01-28T01:25:40.467Z,43.57
2018-01-28T01:28:09.541Z,46.20
2018-01-28T01:30:37.860Z,49.33
2018-01-28T01:33:06.136Z,46.03
2018-01-28T01:35:34.412Z,45.43
2018-01-28T01:38:02.709Z,41.17
2018-01-28T01:40:30.954Z,38.97
2018-01-28T01:42:59.285Z,41.90
2018-01-28T01:45:27.552Z,49.03
2018-01-28T01:47:55.816Z,45.20
2018-01-28T01:50:24.056Z,35.07
2018-01-28T01:52:52.430Z,38.33
2018-01-28T01:55:21.551Z,42.67
2018-01-28T01:57:50.092Z,41.07
2018-01-28T02:00:19.173Z,40.33
2018-01-28T02:02:47.511Z,38.93
2018-01-28T02:05:15.753Z,37.27
2018-01-28T02:07:44.816Z,33.23
2018-01-28T02:10:13.088Z,35.23
2018-01-28T02:12:41.406Z,37.83
2018-01-28T02:15:10.513Z,39.70
2018-01-28T02:17:39.585Z,39.53
2018-01-28T02:20:08.049Z,34.90
2018-01-28T02:22:36.357Z,35.67
2018-01-28T02:25:05.401Z,38.80
2018-01-28T02:27:33.697Z,37.47
2018-01-28T02:30:02.296Z,35.30
2018-01-28T02:32:30.566Z,39.63
2018-01-28T02:34:59.568Z,36.83
2018-01-28T02:37:28.860Z,42.27
2018-01-28T02:39:57.160Z,37.83
2018-01-28T02:42:25.416Z,41.00
2018-01-28T02:44:54.504Z,36.60
2018-01-28T02:47:22.793Z,36.13
2018-01-28T02:49:51.921Z,36.33
2018-01-28T02:52:20.385Z,38.90
2018-01-28T02:54:49.477Z,38.07
2018-01-28T02:57:18.502Z,37.10
2018-01-28T02:59:47.251Z,38.77
2018-01-28T03:02:15.569Z,35.83
2018-01-28T03:04:43.830Z,34.57
2018-01-28T03:07:12.150Z,36.73
2018-01-28T03:09:40.393Z,33.53
2018-01-28T03:12:08.693Z,31.47
2018-01-28T03:14:37.089Z,36.80
2018-01-28T03:17:05.369Z,39.03
2018-01-28T03:19:33.692Z,37.37
2018-01-28T03:22:02.811Z,35.27
2018-01-28T03:24:31.048Z,35.20
2018-01-28T03:27:00.085Z,31.27
2018-01-28T03:29:28.436Z,29.70
2018-01-28T03:31:57.437Z,39.50
2018-01-28T03:34:25.741Z,39.50
2018-01-28T03:36:54.009Z,33.83
2018-01-28T03:39:22.313Z,34.90
2018-01-28T03:41:50.604Z,36.33
2018-01-28T03:44:19.726Z,30.73
2018-01-28T03:46:48.270Z,33.73
2018-01-28T03:49:16.513Z,38.23
2018-01-28T03:51:44.896Z,35.50
2018-01-28T03:54:13.142Z,37.20
2018-01-28T03:56:41.389Z,34.57
2018-01-28T03:59:09.660Z,37.37
2018-01-28T04:01:37.925Z,34.90
2018-01-28T04:04:06.216Z,38.53
2018-01-28T04:06:34.590Z,40.23
2018-01-28T04:09:02.860Z,37.73
2018-01-28T04:11:31.096Z,36.67
2018-01-28T04:13:59.372Z,38.23
2018-01-28T04:16:27.637Z,38.63
2018-01-28T04:18:55.916Z,37.90
2018-01-28T04:21:24.185Z,39.30
2018-01-28T04:23:52.512Z,36.17
2018-01-28T04:26:20.860Z,42.60
2018-01-28T04:28:49.228Z,38.23
2018-01-28T04:31:17.554Z,38.87
2018-01-28T04:33:45.801Z,37.90
2018-01-28T04:36:14.097Z,37.80
2018-01-28T04:38:42.353Z,30.77
2018-01-28T04:41:10.619Z,31.03
2018-01-28T04:43:38.888Z,34.57
2018-01-28T04:46:07.138Z,32.43
2018-01-28T04:48:36.196Z,34.80
2018-01-28T04:51:04.482Z,35.33
2018-01-28T04:53:32.817Z,36.30
2018-01-28T04:56:01.092Z,33.67
2018-01-28T04:58:29.389Z,37.50
2018-01-28T05:00:57.689Z,35.17
2018-01-28T05:03:25.973Z,36.73
2018-01-28T05:05:54.244Z,36.13
2018-01-28T05:08:22.489Z,33.77
2018-01-28T05:10:50.860Z,34.03
2018-01-28T05:13:19.217Z,35.53
2018-01-28T05:15:48.236Z,36.20
2018-01-28T05:18:16.529Z,39.90
2018-01-28T05:20:44.796Z,31.20
2018-01-28T05:23:13.103Z,30.77
2018-01-28T05:25:41.458Z,34.97
2018-01-28T05:28:10.544Z,32.43
2018-01-28T05:30:38.800Z,33.47
2018-01-28T05:33:07.032Z,35.43
2018-01-28T05:35:35.436Z,33.13
2018-01-28T05:38:04.448Z,34.27
2018-01-28T05:40:32.713Z,34.50
2018-01-28T05:43:00.985Z,34.10
2018-01-28T05:45:29.261Z,32.63
2018-01-28T05:47:57.513Z,31.47
2018-01-28T05:50:25.842Z,33.67
2018-01-28T05:52:54.352Z,36.50
2018-01-28T05:55:22.597Z,34.20
2018-01-28T05:57:50.920Z,33.33
2018-01-28T06:00:19.190Z,31.13
2018-01-28T06:02:47.512Z,32.37
2018-01-28T06:05:15.800Z,30.23
2018-01-28T06:07:44.118Z,34.97
2018-01-28T06:10:12.391Z,35.00
2018-01-28T06:12:40.720Z,34.10
2018-01-28T06:15:08.996Z,32.90
2018-01-28T06:17:37.256Z,31.43
2018-01-28T06:20:05.560Z,31.57
2018-01-28T06:22:33.983Z,31.33
2018-01-28T06:25:02.245Z,30.27
2018-01-28T06:27:31.325Z,29.53
2018-01-28T06:30:00.352Z,26.97
2018-01-28T06:32:28.642Z,31.90
2018-01-28T06:34:57.023Z,29.33
2018-01-28T06:37:25.398Z,27.87
2018-01-28T06:39:53.784Z,28.07
2018-01-28T06:42:22.071Z,29.80
2018-01-28T06:44:50.301Z,28.63
2018-01-28T06:47:18.553Z,27.43
2018-01-28T06:49:46.815Z,25.37
2018-01-28T06:52:16.327Z,27.03
2018-01-28T06:54:44.620Z,28.00
2018-01-28T06:57:12.856Z,28.17
2018-01-28T06:59:41.144Z,24.83
2018-01-28T07:02:09.633Z,26.47
2018-01-28T07:04:37.928Z,26.77
2018-01-28T07:07:06.188Z,22.37
2018-01-28T07:09:34.481Z,21.70
2018-01-28T07:12:02.758Z,22.33
2018-01-28T07:14:31.618Z,21.87
2018-01-28T07:17:00.047Z,22.47
2018-01-28T07:19:29.096Z,21.00
2018-01-28T07:21:57.377Z,20.57
2018-01-28T07:24:25.676Z,21.50
2018-01-28T07:26:54.779Z,20.90
2018-01-28T07:29:23.808Z,21.60
2018-01-28T07:31:52.057Z,21.97
2018-01-28T07:34:21.100Z,21.60
2018-01-28T07:36:49.377Z,20.77
2018-01-28T07:39:17.636Z,20.40
2018-01-28T07:41:45.906Z,20.03
2018-01-28T07:44:14.954Z,21.47
2018-01-28T07:46:43.917Z,20.03
2018-01-28T07:49:12.220Z,19.60
2018-01-28T07:51:40.508Z,20.73
2018-01-28T07:54:08.757Z,20.97
2018-01-28T07:56:37.089Z,19.57
2018-01-28T07:59:05.327Z,20.40
2018-01-28T08:01:33.568Z,18.40
2018-01-28T08:04:01.876Z,19.87
2018-01-28T08:06:30.137Z,19.37
2018-01-28T08:08:58.545Z,22.13
2018-01-28T08:11:28.225Z,21.10
2018-01-28T08:14:07.576Z,20.20
2018-01-28T08:16:35.854Z,21.47
2018-01-28T08:19:04.101Z,21.50
2018-01-28T08:21:32.380Z,21.20
2018-01-28T08:24:00.764Z,19.97
2018-01-28T08:26:29.008Z,21.20
2018-01-28T08:29:01.005Z,20.53
2018-01-28T08:31:29.280Z,20.40
2018-01-28T08:33:58.148Z,21.67
2018-01-28T08:36:26.464Z,18.70
2018-01-28T08:38:54.708Z,22.60
2018-01-28T08:41:22.985Z,22.23
2018-01-28T08:43:51.357Z,20.80
2018-01-28T08:46:19.652Z,20.73
2018-01-28T08:48:47.972Z,21.87
2018-01-28T08:51:17.088Z,20.57
2018-01-28T08:53:45.324Z,20.33
2018-01-28T08:56:13.691Z,21.70
2018-01-28T08:58:41.913Z,18.80
2018-01-28T09:01:10.920Z,17.43
2018-01-28T09:03:39.159Z,18.47
2018-01-28T09:06:07.457Z,18.33
2018-01-28T09:08:35.690Z,20.23
2018-01-28T09:11:03.973Z,19.57
2018-01-28T09:13:32.530Z,20.00
2018-01-28T09:16:01.017Z,18.47
2018-01-28T09:18:29.388Z,19.40
2018-01-28T09:20:57.740Z,18.07
2018-01-28T09:23:26.748Z,19.20
2018-01-28T09:25:55.021Z,20.03
2018-01-28T09:28:24.072Z,18.43
2018-01-28T09:30:52.309Z,18.77
2018-01-28T09:33:20.601Z,18.50
2018-01-28T09:35:48.974Z,18.10
2018-01-28T09:38:17.996Z,18.77
2018-01-28T09:40:46.467Z,17.80
2018-01-28T09:43:14.746Z,19.07
2018-01-28T09:45:44.509Z,20.07
2018-01-28T09:48:12.908Z,18.83
2018-01-28T09:50:42.022Z,17.17
2018-01-28T09:53:11.029Z,17.17
2018-01-28T09:55:39.283Z,18.33
2018-01-28T09:58:08.404Z,17.10
2018-01-28T10:00:36.684Z,15.43
2018-01-28T10:03:04.952Z,15.70
2018-01-28T10:05:33.236Z,18.00
2018-01-28T10:08:01.651Z,17.07
2018-01-28T10:10:29.889Z,16.83
2018-01-28T10:12:58.169Z,16.33
2018-01-28T10:15:27.589Z,15.47
2018-01-28T10:17:55.830Z,14.73
2018-01-28T10:20:24.137Z,13.77
2018-01-28T10:22:52.628Z,13.97
2018-01-28T10:25:21.067Z,14.43
2018-01-28T10:27:49.330Z,14.70
2018-01-28T10:30:18.493Z,13.40
2018-01-28T10:32:46.731Z,14.83
2018-01-28T10:35:14.998Z,15.00
2018-01-28T10:37:43.277Z,11.80
2018-01-28T10:40:11.528Z,13.17
2018-01-28T10:42:40.593Z,12.77
2018-01-28T10:45:08.843Z,14.57
2018-01-28T10:47:37.088Z,13.67
2018-01-28T10:50:05.440Z,12.67
2018-01-28T10:52:34.459Z,13.47
2018-01-28T10:55:02.823Z,13.17
2018-01-28T10:57:31.076Z,12.23
2018-01-28T11:00:00.548Z,13.07
2018-01-28T11:02:29.413Z,12.80
2018-01-28T11:04:57.699Z,12.43
2018-01-28T11:07:26.116Z,11.47
2018-01-28T11:09:54.394Z,11.53
2018-01-28T11:12:22.688Z,11.30
2018-01-28T11:14:50.977Z,13.60
2018-01-28T11:17:20.012Z,11.73
2018-01-28T11:19:48.321Z,12.47
2018-01-28T11:22:16.545Z,10.90
2018-01-28T11:24:44.800Z,11.40
2018-01-28T11:27:13.895Z,12.30
2018-01-28T11:29:42.900Z,12.77
2018-01-28T11:32:11.148Z,11.87
2018-01-28T11:34:39.421Z,12.13
2018-01-28T11:37:07.662Z,12.70
2018-01-28T11:39:35.934Z,11.80
2018-01-28T11:42:04.298Z,12.27
2018-01-28T11:44:32.528Z,11.37
2018-01-28T11:47:00.828Z,11.30
2018-01-28T11:49:29.892Z,11.93
2018-01-28T11:51:58.172Z,11.00
2018-01-28T11:54:26.464Z,11.20
2018-01-28T11:56:54.752Z,10.60
2018-01-28T11:59:23.816Z,11.07
2018-01-28T12:01:54.477Z,10.20
2018-01-28T12:04:23.555Z,11.50
2018-01-28T12:06:51.819Z,10.47
2018-01-28T12:09:20.228Z,10.20
2018-01-28T12:11:49.380Z,10.00
2018-01-28T12:14:17.617Z,9.83
2018-01-28T12:16:45.876Z,10.10
2018-01-28T12:19:15.004Z,10.53
2018-01-28T12:21:43.486Z,10.40
2018-01-28T12:24:11.791Z,9.80
2018-01-28T12:26:40.106Z,9.70
2018-01-28T12:29:09.130Z,9.47
2018-01-28T12:31:37.440Z,9.50
2018-01-28T12:34:05.790Z,9.60
2018-01-28T12:36:34.023Z,9.33
2018-01-28T12:39:02.309Z,9.10
2018-01-28T12:41:31.330Z,9.93
2018-01-28T12:43:59.609Z,8.97
2018-01-28T12:46:27.842Z,9.33
2018-01-28T12:48:56.944Z,9.57
2018-01-28T12:51:25.176Z,9.33
2018-01-28T12:53:53.408Z,9.70
2018-01-28T12:56:22.463Z,8.83
2018-01-28T12:58:50.699Z,9.53
2018-01-28T13:01:18.985Z,9.00
2018-01-28T13:03:47.272Z,9.30
2018-01-28T13:06:15.548Z,8.83
2018-01-28T13:08:44.004Z,9.23
2018-01-28T13:11:13.524Z,9.60
2018-01-28T13:13:42.692Z,9.10
2018-01-28T13:16:10.952Z,9.13
2018-01-28T13:18:40.217Z,8.73
2018-01-28T13:21:09.250Z,9.03
2018-01-28T13:23:38.017Z,9.10
2018-01-28T13:26:06.394Z,8.83
2018-01-28T13:28:34.649Z,9.60
2018-01-28T13:31:03.692Z,9.17
2018-01-28T13:33:32.024Z,9.23
2018-01-28T13:36:01.340Z,8.53
2018-01-28T13:38:29.812Z,8.33
2018-01-28T13:40:58.124Z,8.20
2018-01-28T13:43:26.382Z,8.80
2018-01-28T13:45:54.599Z,8.63
2018-01-28T13:48:23.011Z,9.53
2018-01-28T13:50:51.332Z,10.00
2018-01-28T13:53:19.600Z,9.60
2018-01-28T13:55:47.884Z,9.80
2018-01-28T13:58:16.216Z,10.87
2018-01-28T14:00:46.031Z,9.60
2018-01-28T14:03:15.673Z,10.70
2018-01-28T14:05:43.973Z,10.60
2018-01-28T14:08:12.255Z,11.00
2018-01-28T14:10:40.608Z,10.17
2018-01-28T14:13:08.856Z,10.53
2018-01-28T14:15:37.860Z,12.33
2018-01-28T14:18:06.323Z,12.03
2018-01-28T14:20:35.346Z,11.77
2018-01-28T14:23:03.585Z,12.10
2018-01-28T14:25:32.732Z,11.77
2018-01-28T14:28:01.071Z,11.63
2018-01-28T14:30:29.312Z,11.87
2018-01-28T14:32:57.668Z,11.20
2018-01-28T14:35:26.140Z,11.30
2018-01-28T14:37:54.213Z,11.83
2018-01-28T14:40:24.118Z,11.43
2018-01-28T14:42:52.376Z,10.97
2018-01-28T14:45:20.694Z,11.60
2018-01-28T14:47:49.036Z,11.73
2018-01-28T14:50:17.425Z,11.40
2018-01-28T14:52:45.713Z,10.87
2018-01-28T14:55:14.015Z,11.13
2018-01-28T14:57:42.268Z,11.20
2018-01-28T15:00:10.556Z,10.70
2018-01-28T15:02:38.913Z,11.67
2018-01-28T15:05:07.329Z,11.20
2018-01-28T15:07:36.867Z,11.30
2018-01-28T15:10:05.265Z,12.03
2018-01-28T15:12:33.512Z,12.03
2018-01-28T15:15:02.539Z,11.23
2018-01-28T15:17:30.823Z,10.77
2018-01-28T15:19:59.076Z,11.63
2018-01-28T15:22:27.352Z,10.77
2018-01-28T15:24:55.616Z,11.30
2018-01-28T15:27:24.624Z,10.93
2018-01-28T15:29:52.865Z,11.57
2018-01-28T15:32:21.246Z,11.37
2018-01-28T15:34:49.504Z,11.90
2018-01-28T15:37:17.737Z,11.27
2018-01-28T15:39:46.002Z,11.70
2018-01-28T15:42:14.296Z,11.30
2018-01-28T15:44:42.629Z,11.67
2018-01-28T15:47:10.893Z,12.07
2018-01-28T15:49:39.128Z,12.00
2018-01-28T15:52:07.547Z,11.20
2018-01-28T15:54:35.865Z,12.23
2018-01-28T15:57:04.108Z,12.47
2018-01-28T15:59:32.356Z,12.27
2018-01-28T16:02:00.635Z,12.37
2018-01-28T16:04:28.884Z,12.63
2018-01-28T16:06:57.128Z,11.77
2018-01-28T16:09:26.188Z,11.57
2018-01-28T16:11:54.568Z,11.17
2018-01-28T16:14:22.804Z,11.77
2018-01-28T16:16:51.110Z,12.33
2018-01-28T16:19:19.372Z,11.37
2018-01-28T16:21:47.644Z,11.77
2018-01-28T16:24:15.924Z,11.97
2018-01-28T16:26:44.237Z,11.50
2018-01-28T16:29:12.908Z,11.93
2018-01-28T16:31:41.289Z,12.73
2018-01-28T16:34:09.540Z,12.80
2018-01-28T16:36:37.930Z,11.60
2018-01-28T16:39:06.276Z,12.30
2018-01-28T16:41:34.600Z,11.47
2018-01-28T16:44:02.864Z,11.70
2018-01-28T16:46:31.139Z,12.13
2018-01-28T16:48:59.417Z,11.47
2018-01-28T16:51:27.652Z,11.77
2018-01-28T16:53:56.723Z,11.40
2018-01-28T16:56:24.924Z,11.33
2018-01-28T16:58:54.095Z,11.73
2018-01-28T17:01:23.596Z,10.53
2018-01-28T17:03:51.856Z,11.03
2018-01-28T17:06:20.316Z,10.40
2018-01-28T17:08:49.350Z,11.60
2018-01-28T17:11:17.626Z,26.57
2018-01-28T17:13:45.871Z,11.97
2018-01-28T17:16:14.139Z,12.73
2018-01-28T17:18:42.597Z,12.37
2018-01-28T17:21:10.837Z,10.93
2018-01-28T17:23:39.133Z,9.97
2018-01-28T17:26:07.415Z,10.53
2018-01-28T17:28:35.658Z,10.80
2018-01-28T17:31:04.367Z,9.57
2018-01-28T17:33:33.443Z,10.17
2018-01-28T17:36:01.742Z,10.03
2018-01-28T17:38:30.053Z,10.83
2018-01-28T17:40:59.115Z,10.40
2018-01-28T17:43:27.382Z,10.00
2018-01-28T17:45:56.085Z,10.23
2018-01-28T17:48:24.327Z,10.33
2018-01-28T17:50:52.661Z,10.13
2018-01-28T17:53:21.698Z,11.40
2018-01-28T17:55:49.970Z,10.37
2018-01-28T17:58:18.221Z,11.57
2018-01-28T18:00:46.573Z,11.13
2018-01-28T18:03:14.827Z,11.13
2018-01-28T18:05:43.071Z,9.90
2018-01-28T18:08:14.209Z,10.40
2018-01-28T18:10:43.278Z,10.77
2018-01-28T18:13:11.661Z,10.63
2018-01-28T18:15:40.710Z,10.50
2018-01-28T18:18:09.240Z,10.50
2018-01-28T18:20:37.492Z,9.70
2018-01-28T18:23:05.830Z,10.97
2018-01-28T18:25:34.147Z,10.73
2018-01-28T18:28:02.392Z,11.60
2018-01-28T18:30:30.784Z,11.20
2018-01-28T18:32:59.025Z,11.40
2018-01-28T18:35:27.275Z,11.10
2018-01-28T18:37:55.537Z,10.93
2018-01-28T18:40:24.572Z,11.30
2018-01-28T18:42:52.839Z,11.33
2018-01-28T18:45:21.119Z,10.83
2018-01-28T18:47:49.360Z,11.37
2018-01-28T18:50:18.459Z,12.10
2018-01-28T18:52:47.572Z,11.80
2018-01-28T18:55:15.804Z,12.33
2018-01-28T18:57:44.140Z,11.17
2018-01-28T19:00:12.658Z,10.77
2018-01-28T19:02:41.724Z,11.70
2018-01-28T19:05:09.969Z,10.57
2018-01-28T19:07:38.483Z,11.30
2018-01-28T19:10:06.752Z,11.30
2018-01-28T19:12:34.990Z,11.33
2018-01-28T19:15:04.333Z,10.37
2018-01-28T19:17:32.624Z,11.10
2018-01-28T19:20:00.889Z,10.40
2018-01-28T19:22:29.636Z,10.67
2018-01-28T19:24:57.946Z,10.93
2018-01-28T19:27:27.243Z,9.73
2018-01-28T19:29:55.705Z,10.27
2018-01-28T19:32:24.871Z,10.57
2018-01-28T19:34:53.604Z,10.40
2018-01-28T19:37:21.909Z,10.80
2018-01-28T19:39:50.306Z,9.50
2018-01-28T19:42:18.562Z,9.53
2018-01-28T19:44:46.875Z,9.60
2018-01-28T19:47:15.285Z,10.00
2018-01-28T19:49:43.509Z,10.27
2018-01-28T19:52:11.862Z,10.10
2018-01-28T19:54:40.161Z,9.70
2018-01-28T19:57:08.537Z,10.20
2018-01-28T19:59:36.976Z,10.03
2018-01-28T20:02:05.974Z,9.70
2018-01-28T20:04:35.602Z,10.60
2018-01-28T20:07:03.924Z,9.83
2018-01-28T20:09:34.467Z,10.03
2018-01-28T20:12:03.561Z,9.70
2018-01-28T20:14:32.230Z,9.77
2018-01-28T20:17:02.132Z,9.67
2018-01-28T20:19:30.641Z,9.37
2018-01-28T20:22:00.646Z,9.00
2018-01-28T20:24:30.053Z,9.20
2018-01-28T20:26:58.359Z,9.43
2018-01-28T20:29:26.683Z,9.20
2018-01-28T20:31:55.216Z,10.50
2018-01-28T20:34:23.850Z,9.70
2018-01-28T20:36:52.121Z,9.50
2018-01-28T20:39:21.410Z,10.00
2018-01-28T20:41:50.863Z,9.30
2018-01-28T20:44:20.389Z,9.83
2018-01-28T20:46:49.582Z,10.70
2018-01-28T20:49:17.841Z,9.97
2018-01-28T20:51:46.944Z,9.67
2018-01-28T20:54:16.809Z,10.27
2018-01-28T20:56:45.805Z,10.40
2018-01-28T20:59:15.174Z,9.80
2018-01-28T21:01:44.353Z,9.90
2018-01-28T21:04:13.444Z,10.60
2018-01-28T21:06:41.855Z,10.30
2018-01-28T21:09:10.628Z,10.87
2018-01-28T21:11:39.934Z,10.20
2018-01-28T21:14:08.278Z,10.50
2018-01-28T21:16:36.553Z,9.70
2018-01-28T21:19:05.770Z,10.63
2018-01-28T21:21:35.540Z,10.60
2018-01-28T21:24:03.890Z,10.77
2018-01-28T21:26:32.317Z,10.27
2018-01-28T21:29:01.314Z,9.77
2018-01-28T21:31:30.440Z,11.00
2018-01-28T21:33:59.496Z,10.60
2018-01-28T21:36:27.877Z,9.97
2018-01-28T21:38:56.928Z,11.43
2018-01-28T21:41:25.187Z,10.40
2018-01-28T21:43:53.477Z,10.53
2018-01-28T21:46:21.772Z,9.93
2018-01-28T21:48:50.563Z,10.17
2018-01-28T21:51:20.129Z,10.23
2018-01-28T21:53:49.366Z,10.37
2018-01-28T21:56:18.382Z,9.80
2018-01-28T21:58:46.672Z,10.40
2018-01-28T22:01:15.020Z,10.73
2018-01-28T22:03:43.305Z,10.77
2018-01-28T22:06:11.817Z,10.30
2018-01-28T22:08:41.049Z,10.67
2018-01-28T22:11:09.307Z,10.80
2018-01-28T22:13:37.642Z,10.50
2018-01-28T22:16:06.684Z,10.27
2018-01-28T22:18:35.684Z,11.17
2018-01-28T22:21:04.072Z,10.77
2018-01-28T22:23:32.432Z,11.10
2018-01-28T22:26:00.763Z,10.80
2018-01-28T22:28:29.102Z,11.50
2018-01-28T22:30:58.169Z,11.20
2018-01-28T22:33:27.271Z,11.10
2018-01-28T22:35:56.364Z,11.77
2018-01-28T22:38:25.550Z,10.60
2018-01-28T22:40:53.954Z,11.57
2018-01-28T22:43:22.332Z,10.90
2018-01-28T22:45:51.334Z,10.97
2018-01-28T22:48:19.729Z,11.10
2018-01-28T22:50:48.129Z,11.87
2018-01-28T22:53:16.419Z,11.43
2018-01-28T22:55:44.692Z,11.03
2018-01-28T22:58:13.038Z,10.30
2018-01-28T23:00:42.034Z,10.30
2018-01-28T23:03:10.288Z,10.53
2018-01-28T23:05:39.329Z,11.37
2018-01-28T23:08:07.594Z,10.83
2018-01-28T23:10:35.848Z,11.30
2018-01-28T23:13:04.112Z,11.23
2018-01-28T23:15:32.356Z,10.47
2018-01-28T23:18:00.632Z,11.57
2018-01-28T23:20:28.938Z,10.73
2018-01-28T23:22:57.228Z,11.50
2018-01-28T23:25:25.477Z,11.43
2018-01-28T23:27:54.505Z,11.70
2018-01-28T23:30:22.816Z,10.87
2018-01-28T23:32:51.076Z,12.10
2018-01-28T23:35:19.533Z,12.57
2018-01-28T23:37:47.848Z,11.80
2018-01-28T23:40:16.084Z,12.57
2018-01-28T23:42:44.371Z,12.63
2018-01-28T23:45:12.601Z,13.07
2018-01-28T23:47:41.617Z,11.73
2018-01-28T23:50:09.890Z,13.07
2018-01-28T23:52:38.139Z,13.00
2018-01-28T23:55:06.465Z,14.70
2018-01-28T23:57:34.817Z,12.67
